Аэропорт: Гомель. Гомель

ICAO: UMGG

METAR:
2021-07-28 12:30:00
UMGG 281230Z 26007MPS 9999 SCT048CB BKN100 30/17 Q1012 R28/CLRD// NOSIG
METAR:
2021-07-28 10:59:00
TAF UMGG 281059Z 2812/2912 28006MPS 9999 SCT030 TX31/2912Z TN19/2902Z TEMPO 2812/2818 VRB14MPS 2000 TSRA SQ BKN040CB BECMG 2818/2820 25005MPS 4000 BR TEMPO 2820/2905 VRB02MPS 1200 BR BKN005 BECMG 2905/2907 18005MPS 9999 NSW